createdAt,value
2023-06-04T00:02:15.461Z,21.37
2023-06-04T00:04:41.808Z,21.18
2023-06-04T00:07:08.260Z,21.12
2023-06-04T00:09:35.893Z,21.21
2023-06-04T00:12:02.411Z,21.27
2023-06-04T00:14:29.027Z,21.33
2023-06-04T00:16:55.289Z,21.33
2023-06-04T00:19:21.638Z,21.34
2023-06-04T00:21:47.902Z,21.34
2023-06-04T00:24:14.313Z,21.31
2023-06-04T00:26:41.956Z,21.09
2023-06-04T00:29:08.321Z,21.12
2023-06-04T00:31:34.838Z,21.21
2023-06-04T00:34:01.193Z,21.28
2023-06-04T00:36:27.508Z,21.28
2023-06-04T00:38:53.972Z,21.29
2023-06-04T00:41:20.296Z,21.31
2023-06-04T00:43:47.873Z,21.33
2023-06-04T00:46:14.454Z,21.20
2023-06-04T00:48:40.754Z,21.07
2023-06-04T00:51:07.307Z,21.17
2023-06-04T00:53:33.752Z,21.23
2023-06-04T00:56:00.046Z,21.25
2023-06-04T00:58:26.462Z,21.29
2023-06-04T01:00:55.955Z,21.30
2023-06-04T01:03:25.031Z,21.31
2023-06-04T01:05:56.532Z,21.15
2023-06-04T01:08:24.014Z,21.08
2023-06-04T01:10:52.022Z,21.16
2023-06-04T01:13:18.291Z,21.24
2023-06-04T01:15:44.686Z,21.28
2023-06-04T01:18:15.888Z,21.27
2023-06-04T01:20:44.013Z,21.29
2023-06-04T01:23:15.587Z,21.29
2023-06-04T01:25:42.784Z,21.17
2023-06-04T01:28:09.619Z,21.07
2023-06-04T01:30:37.032Z,21.15
2023-06-04T01:33:04.122Z,21.21
2023-06-04T01:35:31.803Z,21.25
2023-06-04T01:37:58.382Z,21.26
2023-06-04T01:40:25.087Z,21.28
2023-06-04T01:42:51.562Z,21.30
2023-06-04T01:45:17.904Z,21.23
2023-06-04T01:47:44.218Z,21.06
2023-06-04T01:50:11.019Z,21.09
2023-06-04T01:52:39.092Z,21.18
2023-06-04T01:55:05.606Z,21.21
2023-06-04T01:57:31.913Z,21.23
2023-06-04T01:59:58.219Z,21.25
2023-06-04T02:02:24.526Z,21.27
2023-06-04T02:04:50.841Z,21.23
2023-06-04T02:07:17.120Z,21.06
2023-06-04T02:09:44.763Z,21.07
2023-06-04T02:12:11.065Z,21.15
2023-06-04T02:14:37.493Z,21.19
2023-06-04T02:17:03.899Z,21.21
2023-06-04T02:19:30.212Z,21.22
2023-06-04T02:21:56.598Z,21.24
2023-06-04T02:24:22.923Z,21.25
2023-06-04T02:26:50.465Z,21.09
2023-06-04T02:29:16.807Z,21.03
2023-06-04T02:31:43.163Z,21.11
2023-06-04T02:34:09.483Z,21.17
2023-06-04T02:36:35.773Z,21.18
2023-06-04T02:39:02.081Z,21.20
2023-06-04T02:41:28.421Z,21.21
2023-06-04T02:43:56.014Z,21.22
2023-06-04T02:46:22.500Z,21.10
2023-06-04T02:48:48.854Z,21.00
2023-06-04T02:51:15.156Z,21.08
2023-06-04T02:53:41.552Z,21.13
2023-06-04T02:56:07.838Z,21.19
2023-06-04T02:58:34.135Z,21.17
2023-06-04T03:01:01.803Z,21.22
2023-06-04T03:03:28.412Z,21.23
2023-06-04T03:05:54.737Z,21.19
2023-06-04T03:08:21.120Z,21.04
2023-06-04T03:10:47.466Z,20.98
2023-06-04T03:13:13.783Z,21.07
2023-06-04T03:15:40.237Z,21.13
2023-06-04T03:18:08.414Z,21.14
2023-06-04T03:20:34.776Z,21.17
2023-06-04T03:23:01.149Z,21.17
2023-06-04T03:25:27.541Z,21.19
2023-06-04T03:27:53.859Z,21.18
2023-06-04T03:30:20.258Z,21.00
2023-06-04T03:32:46.703Z,20.96
2023-06-04T03:35:14.406Z,21.07
2023-06-04T03:37:40.732Z,21.11
2023-06-04T03:40:07.629Z,21.14
2023-06-04T03:42:34.036Z,21.14
2023-06-04T03:45:00.356Z,21.18
2023-06-04T03:47:26.656Z,21.17
2023-06-04T03:49:53.047Z,21.05
2023-06-04T03:52:20.628Z,20.96
2023-06-04T03:54:46.941Z,21.04
2023-06-04T03:57:13.286Z,21.10
2023-06-04T03:59:39.607Z,21.12
2023-06-04T04:02:05.991Z,21.12
2023-06-04T04:04:32.349Z,21.14
2023-06-04T04:06:58.640Z,21.14
2023-06-04T04:09:26.209Z,21.03
2023-06-04T04:11:52.659Z,20.94
2023-06-04T04:14:18.972Z,21.03
2023-06-04T04:16:45.299Z,21.08
2023-06-04T04:19:11.839Z,21.09
2023-06-04T04:21:38.505Z,21.11
2023-06-04T04:24:05.044Z,21.12
2023-06-04T04:26:32.805Z,21.09
2023-06-04T04:28:59.423Z,20.93
2023-06-04T04:31:26.936Z,20.97
2023-06-04T04:33:53.351Z,21.03
2023-06-04T04:36:20.558Z,21.08
2023-06-04T04:38:48.516Z,21.09
2023-06-04T04:41:14.856Z,21.10
2023-06-04T04:43:42.448Z,21.12
2023-06-04T04:46:08.756Z,21.07
2023-06-04T04:48:35.082Z,20.92
2023-06-04T04:51:01.437Z,20.94
2023-06-04T04:53:27.859Z,21.02
2023-06-04T04:55:54.205Z,21.05
2023-06-04T04:58:20.473Z,21.08
2023-06-04T05:00:48.148Z,21.08
2023-06-04T05:03:14.581Z,21.10
2023-06-04T05:05:40.900Z,20.96
2023-06-04T05:08:07.173Z,20.91
2023-06-04T05:10:34.001Z,20.99
2023-06-04T05:13:00.832Z,21.04
2023-06-04T05:15:27.531Z,21.06
2023-06-04T05:17:55.317Z,21.09
2023-06-04T05:20:21.723Z,21.10
2023-06-04T05:22:48.033Z,21.07
2023-06-04T05:25:14.762Z,20.91
2023-06-04T05:27:41.507Z,20.94
2023-06-04T05:30:08.273Z,21.03
2023-06-04T05:32:34.767Z,21.04
2023-06-04T05:35:02.414Z,21.07
2023-06-04T05:37:28.683Z,21.08
2023-06-04T05:39:55.983Z,21.09
2023-06-04T05:42:22.512Z,21.03
2023-06-04T05:44:48.801Z,20.90
2023-06-04T05:47:16.191Z,20.93
2023-06-04T05:49:42.494Z,21.03
2023-06-04T05:52:10.068Z,21.06
2023-06-04T05:54:36.344Z,21.05
2023-06-04T05:57:02.722Z,21.06
2023-06-04T05:59:29.097Z,21.08
2023-06-04T06:01:55.436Z,21.04
2023-06-04T06:04:21.869Z,20.90
2023-06-04T06:06:48.265Z,20.94
2023-06-04T06:09:15.972Z,21.01
2023-06-04T06:11:42.320Z,21.03
2023-06-04T06:14:08.638Z,21.06
2023-06-04T06:16:34.979Z,21.08
2023-06-04T06:19:01.490Z,21.09
2023-06-04T06:21:27.831Z,21.00
2023-06-04T06:23:54.359Z,20.91
2023-06-04T06:26:22.006Z,20.98
2023-06-04T06:28:48.602Z,21.02
2023-06-04T06:31:16.102Z,21.05
2023-06-04T06:33:42.486Z,21.08
2023-06-04T06:36:11.338Z,21.08
2023-06-04T06:38:37.616Z,21.05
2023-06-04T06:41:03.932Z,20.93
2023-06-04T06:43:31.566Z,20.96
2023-06-04T06:45:57.836Z,21.04
2023-06-04T06:48:24.146Z,21.07
2023-06-04T06:50:50.495Z,21.09
2023-06-04T06:53:16.842Z,21.09
2023-06-04T06:55:43.146Z,21.06
2023-06-04T06:58:09.442Z,20.90
2023-06-04T07:00:37.164Z,20.95
2023-06-04T07:03:03.740Z,21.01
2023-06-04T07:05:30.171Z,21.06
2023-06-04T07:07:56.545Z,21.07
2023-06-04T07:10:22.817Z,21.09
2023-06-04T07:12:49.175Z,21.10
2023-06-04T07:15:15.465Z,21.11
2023-06-04T07:17:43.046Z,20.96
2023-06-04T07:20:09.557Z,20.96
2023-06-04T07:22:36.193Z,21.02
2023-06-04T07:25:02.543Z,21.08
2023-06-04T07:27:28.918Z,21.09
2023-06-04T07:29:55.205Z,21.12
2023-06-04T07:32:21.633Z,21.04
2023-06-04T07:34:49.277Z,20.94
2023-06-04T07:37:15.605Z,21.01
2023-06-04T07:39:41.973Z,21.07
2023-06-04T07:42:08.336Z,21.09
2023-06-04T07:44:34.676Z,21.12
2023-06-04T07:47:01.227Z,21.14
2023-06-04T07:49:27.572Z,21.14
2023-06-04T07:51:55.147Z,21.12
2023-06-04T07:54:21.483Z,20.95
2023-06-04T07:56:47.787Z,20.98
2023-06-04T07:59:14.108Z,21.06
2023-06-04T08:01:40.433Z,21.11
2023-06-04T08:04:07.221Z,21.13
2023-06-04T08:06:33.627Z,21.16
2023-06-04T08:09:01.225Z,21.16
2023-06-04T08:11:27.692Z,21.13
2023-06-04T08:13:53.986Z,20.95
2023-06-04T08:16:20.305Z,21.01
2023-06-04T08:18:46.675Z,21.07
2023-06-04T08:21:12.962Z,21.12
2023-06-04T08:23:39.338Z,21.15
2023-06-04T08:26:08.853Z,21.18
2023-06-04T08:28:35.532Z,21.19
2023-06-04T08:31:01.851Z,21.15
2023-06-04T08:33:28.157Z,20.94
2023-06-04T08:35:54.585Z,20.96
2023-06-04T08:38:20.892Z,21.05
2023-06-04T08:40:50.913Z,21.11
2023-06-04T08:43:19.820Z,21.14
2023-06-04T08:45:49.914Z,21.18
2023-06-04T08:48:18.575Z,21.21
2023-06-04T08:50:45.940Z,21.23
2023-06-04T08:53:14.056Z,21.07
2023-06-04T08:55:40.481Z,20.95
2023-06-04T08:58:06.821Z,21.04
2023-06-04T09:00:34.458Z,21.11
2023-06-04T09:03:02.644Z,21.17
2023-06-04T09:05:29.180Z,21.19
2023-06-04T09:07:56.444Z,21.23
2023-06-04T09:10:25.078Z,21.27
2023-06-04T09:12:52.118Z,21.09
2023-06-04T09:15:18.753Z,20.95
2023-06-04T09:17:46.458Z,21.06
2023-06-04T09:20:20.588Z,21.12
2023-06-04T09:22:46.878Z,21.17
2023-06-04T09:25:20.154Z,21.22
2023-06-04T09:27:46.453Z,21.25
2023-06-04T09:30:12.968Z,21.24
2023-06-04T09:32:39.304Z,21.03
2023-06-04T09:35:11.337Z,20.99
2023-06-04T09:37:37.621Z,21.08
2023-06-04T09:40:04.389Z,21.15
2023-06-04T09:42:30.690Z,21.20
2023-06-04T09:44:56.966Z,21.25
2023-06-04T09:47:23.387Z,21.28
2023-06-04T09:49:50.371Z,21.26
2023-06-04T09:52:18.301Z,21.06
2023-06-04T09:54:44.663Z,20.97
2023-06-04T09:57:15.230Z,21.07
2023-06-04T09:59:44.006Z,21.15
2023-06-04T10:02:10.451Z,21.21
2023-06-04T10:04:37.048Z,21.26
2023-06-04T10:07:04.437Z,21.30
2023-06-04T10:09:33.520Z,21.29
2023-06-04T10:12:00.628Z,21.12
2023-06-04T10:14:32.130Z,20.95
2023-06-04T10:16:59.373Z,21.06
2023-06-04T10:19:26.276Z,21.15
2023-06-04T10:21:53.672Z,21.22
2023-06-04T10:24:19.978Z,21.28
2023-06-04T10:26:48.150Z,21.31
2023-06-04T10:29:15.158Z,21.27
2023-06-04T10:31:41.593Z,21.07
2023-06-04T10:34:08.054Z,20.96
2023-06-04T10:36:43.377Z,21.09
2023-06-04T10:39:09.670Z,21.18
2023-06-04T10:41:36.010Z,21.25
2023-06-04T10:44:03.851Z,21.29
2023-06-04T10:46:38.667Z,21.33
2023-06-04T10:49:04.994Z,21.34
2023-06-04T10:51:32.006Z,21.12
2023-06-04T10:53:58.498Z,20.96
2023-06-04T10:56:26.409Z,21.05
2023-06-04T10:58:52.680Z,21.16
2023-06-04T11:01:25.083Z,21.24
2023-06-04T11:03:51.552Z,21.29
2023-06-04T11:06:17.896Z,21.32
2023-06-04T11:08:44.321Z,21.35
2023-06-04T11:11:11.618Z,21.23
2023-06-04T11:13:39.051Z,21.02
2023-06-04T11:16:15.099Z,21.01
2023-06-04T11:18:42.719Z,21.11
2023-06-04T11:21:09.313Z,21.22
2023-06-04T11:23:35.857Z,21.31
2023-06-04T11:26:02.203Z,21.36
2023-06-04T11:28:28.562Z,21.37
2023-06-04T11:30:58.410Z,21.30
2023-06-04T11:33:24.838Z,21.12
2023-06-04T11:35:52.407Z,20.98
2023-06-04T11:38:18.730Z,21.00
2023-06-04T11:40:45.030Z,21.11
2023-06-04T11:43:11.583Z,21.22
2023-06-04T11:45:38.145Z,21.29
2023-06-04T11:48:07.205Z,21.33
2023-06-04T11:50:33.917Z,21.36
2023-06-04T11:53:01.542Z,21.37
2023-06-04T11:55:28.109Z,21.26
2023-06-04T11:57:54.410Z,21.07
2023-06-04T12:00:21.048Z,21.00
2023-06-04T12:02:49.850Z,21.10
2023-06-04T12:05:16.978Z,21.21
2023-06-04T12:07:43.252Z,21.29
2023-06-04T12:10:11.326Z,21.34
2023-06-04T12:12:37.642Z,21.38
2023-06-04T12:15:04.349Z,21.39
2023-06-04T12:17:30.786Z,21.20
2023-06-04T12:19:57.231Z,21.01
2023-06-04T12:22:23.554Z,21.05
2023-06-04T12:24:50.931Z,21.17
2023-06-04T12:27:18.547Z,21.26
2023-06-04T12:29:54.857Z,21.35
2023-06-04T12:32:21.213Z,21.38
2023-06-04T12:34:47.518Z,21.38
2023-06-04T12:37:14.022Z,21.24
2023-06-04T12:39:40.456Z,21.09
2023-06-04T12:42:07.681Z,21.01
2023-06-04T12:44:36.232Z,21.14
2023-06-04T12:47:02.690Z,21.24
2023-06-04T12:49:29.084Z,21.30
2023-06-04T12:51:55.551Z,21.37
2023-06-04T12:54:21.851Z,21.39
2023-06-04T12:56:48.198Z,21.33
2023-06-04T12:59:14.476Z,21.13
2023-06-04T13:01:42.152Z,21.01
2023-06-04T13:04:08.597Z,21.07
2023-06-04T13:06:35.615Z,21.20
2023-06-04T13:09:02.006Z,21.27
2023-06-04T13:11:28.324Z,21.33
2023-06-04T13:13:54.587Z,21.37
2023-06-04T13:16:20.930Z,21.40
2023-06-04T13:18:48.527Z,21.26
2023-06-04T13:21:14.837Z,21.07
2023-06-04T13:23:50.242Z,21.01
2023-06-04T13:26:17.696Z,21.11
2023-06-04T13:28:44.192Z,21.23
2023-06-04T13:31:10.481Z,21.32
2023-06-04T13:33:36.856Z,21.37
2023-06-04T13:36:04.876Z,21.41
2023-06-04T13:38:31.462Z,21.36
2023-06-04T13:40:57.994Z,21.19
2023-06-04T13:43:24.294Z,21.05
2023-06-04T13:45:50.624Z,21.01
2023-06-04T13:48:17.059Z,21.15
2023-06-04T13:50:43.391Z,21.26
2023-06-04T13:53:11.267Z,21.32
2023-06-04T13:55:37.702Z,21.38
2023-06-04T13:58:04.026Z,21.40
2023-06-04T14:00:30.407Z,21.43
2023-06-04T14:02:56.793Z,21.26
2023-06-04T14:05:23.390Z,21.07
2023-06-04T14:07:49.840Z,21.01
2023-06-04T14:10:17.586Z,21.08
2023-06-04T14:12:43.935Z,21.18
2023-06-04T14:15:10.509Z,21.27
2023-06-04T14:17:36.844Z,21.35
2023-06-04T14:20:03.243Z,21.39
2023-06-04T14:22:29.578Z,21.40
2023-06-04T14:24:55.882Z,21.39
2023-06-04T14:27:23.580Z,21.26
2023-06-04T14:29:49.890Z,21.10
2023-06-04T14:32:16.220Z,21.05
2023-06-04T14:34:42.507Z,21.16
2023-06-04T14:37:08.831Z,21.27
2023-06-04T14:39:35.156Z,21.34
2023-06-04T14:42:01.434Z,21.39
2023-06-04T14:44:29.105Z,21.43
2023-06-04T14:46:55.568Z,21.38
2023-06-04T14:49:21.856Z,21.23
2023-06-04T14:51:48.149Z,21.09
2023-06-04T14:54:14.474Z,21.03
2023-06-04T14:56:40.763Z,21.05
2023-06-04T14:59:07.207Z,21.20
2023-06-04T15:01:34.869Z,21.28
2023-06-04T15:04:01.297Z,21.36
2023-06-04T15:06:27.646Z,21.40
2023-06-04T15:08:53.947Z,21.44
2023-06-04T15:11:20.310Z,21.44
2023-06-04T15:13:46.638Z,21.30
2023-06-04T15:16:13.117Z,21.13
2023-06-04T15:18:40.920Z,21.07
2023-06-04T15:21:07.663Z,21.04
2023-06-04T15:23:34.099Z,21.18
2023-06-04T15:26:00.449Z,21.27
2023-06-04T15:28:26.749Z,21.34
2023-06-04T15:30:53.128Z,21.40
2023-06-04T15:33:19.400Z,21.45
2023-06-04T15:35:46.915Z,21.48
2023-06-04T15:38:13.204Z,21.38
2023-06-04T15:40:39.507Z,21.20
2023-06-04T15:43:05.803Z,21.11
2023-06-04T15:45:32.150Z,21.09
2023-06-04T15:47:58.526Z,21.21
2023-06-04T15:50:24.888Z,21.32
2023-06-04T15:52:52.591Z,21.38
2023-06-04T15:55:18.944Z,21.43
2023-06-04T15:57:45.227Z,21.47
2023-06-04T16:00:12.031Z,21.51
2023-06-04T16:02:38.441Z,21.38
2023-06-04T16:05:04.986Z,21.19
2023-06-04T16:07:31.330Z,21.13
2023-06-04T16:09:58.945Z,21.10
2023-06-04T16:12:25.280Z,21.23
2023-06-04T16:14:51.619Z,21.34
2023-06-04T16:17:17.928Z,21.39
2023-06-04T16:19:44.271Z,21.44
2023-06-04T16:22:10.586Z,21.50
2023-06-04T16:24:36.960Z,21.53
2023-06-04T16:27:04.620Z,21.39
2023-06-04T16:29:30.901Z,21.24
2023-06-04T16:31:57.256Z,21.12
2023-06-04T16:34:23.656Z,21.14
2023-06-04T16:36:49.961Z,21.30
2023-06-04T16:39:16.311Z,21.40
2023-06-04T16:41:42.627Z,21.48
2023-06-04T16:44:10.223Z,21.52
2023-06-04T16:46:36.712Z,21.53
2023-06-04T16:49:03.034Z,21.51
2023-06-04T16:51:29.289Z,21.37
2023-06-04T16:53:55.579Z,21.21
2023-06-04T16:56:22.015Z,21.13
2023-06-04T16:58:48.288Z,21.29
2023-06-04T17:01:16.016Z,21.40
2023-06-04T17:03:42.347Z,21.49
2023-06-04T17:06:09.053Z,21.55
2023-06-04T17:08:35.590Z,21.58
2023-06-04T17:11:01.902Z,21.59
2023-06-04T17:13:28.184Z,21.38
2023-06-04T17:15:54.516Z,21.27
2023-06-04T17:18:22.140Z,21.18
2023-06-04T17:20:48.496Z,21.25
2023-06-04T17:23:19.349Z,21.36
2023-06-04T17:25:45.681Z,21.47
2023-06-04T17:28:12.142Z,21.54
2023-06-04T17:30:38.499Z,21.57
2023-06-04T17:33:04.886Z,21.60
2023-06-04T17:35:32.506Z,21.55
2023-06-04T17:37:58.962Z,21.34
2023-06-04T17:40:27.534Z,21.23
2023-06-04T17:42:54.152Z,21.19
2023-06-04T17:45:20.533Z,21.33
2023-06-04T17:47:46.850Z,21.46
2023-06-04T17:50:13.164Z,21.52
2023-06-04T17:52:40.863Z,21.58
2023-06-04T17:55:07.764Z,21.61
2023-06-04T17:57:34.044Z,21.64
2023-06-04T18:00:00.426Z,21.50
2023-06-04T18:02:26.823Z,21.26
2023-06-04T18:04:53.301Z,21.20
2023-06-04T18:07:19.628Z,21.34
2023-06-04T18:09:47.383Z,21.46
2023-06-04T18:12:13.752Z,21.54
2023-06-04T18:14:40.247Z,21.60
2023-06-04T18:17:06.819Z,21.64
2023-06-04T18:19:33.964Z,21.64
2023-06-04T18:22:00.383Z,21.43
2023-06-04T18:24:26.767Z,21.26
2023-06-04T18:26:54.401Z,21.20
2023-06-04T18:29:20.743Z,21.37
2023-06-04T18:31:47.204Z,21.51
2023-06-04T18:34:13.553Z,21.57
2023-06-04T18:36:39.823Z,21.61
2023-06-04T18:39:06.233Z,21.64
2023-06-04T18:41:32.654Z,21.65
2023-06-04T18:44:00.245Z,21.50
2023-06-04T18:46:26.593Z,21.28
2023-06-04T18:48:52.940Z,21.18
2023-06-04T18:51:19.237Z,21.34
2023-06-04T18:53:45.540Z,21.50
2023-06-04T18:56:11.826Z,21.57
2023-06-04T18:58:38.131Z,21.61
2023-06-04T19:01:05.780Z,21.64
2023-06-04T19:03:32.169Z,21.66
2023-06-04T19:05:58.465Z,21.64
2023-06-04T19:08:24.737Z,21.40
2023-06-04T19:10:51.125Z,21.23
2023-06-04T19:13:17.575Z,21.34
2023-06-04T19:15:43.892Z,21.48
2023-06-04T19:18:11.541Z,21.56
2023-06-04T19:20:37.848Z,21.61
2023-06-04T19:23:04.144Z,21.64
2023-06-04T19:25:30.457Z,21.65
2023-06-04T19:27:56.773Z,21.52
2023-06-04T19:30:23.246Z,21.32
2023-06-04T19:32:49.560Z,21.30
2023-06-04T19:35:17.368Z,21.43
2023-06-04T19:37:43.768Z,21.55
2023-06-04T19:40:10.423Z,21.60
2023-06-04T19:42:36.701Z,21.63
2023-06-04T19:45:03.201Z,21.66
2023-06-04T19:47:29.563Z,21.42
2023-06-04T19:49:56.035Z,21.23
2023-06-04T19:52:23.635Z,21.38
2023-06-04T19:54:49.902Z,21.50
2023-06-04T19:57:16.327Z,21.56
2023-06-04T19:59:42.632Z,21.58
2023-06-04T20:02:09.104Z,21.63
2023-06-04T20:04:35.441Z,21.56
2023-06-04T20:07:01.954Z,21.28
2023-06-04T20:09:29.600Z,21.26
2023-06-04T20:11:55.898Z,21.42
2023-06-04T20:14:23.763Z,21.51
2023-06-04T20:16:50.337Z,21.57
2023-06-04T20:19:16.729Z,21.61
2023-06-04T20:21:43.066Z,21.63
2023-06-04T20:24:09.506Z,21.50
2023-06-04T20:26:37.166Z,21.27
2023-06-04T20:29:03.489Z,21.33
2023-06-04T20:31:29.906Z,21.46
2023-06-04T20:33:56.298Z,21.53
2023-06-04T20:36:22.716Z,21.57
2023-06-04T20:38:49.144Z,21.59
2023-06-04T20:41:15.476Z,21.29
2023-06-04T20:43:46.898Z,21.24
2023-06-04T20:46:13.833Z,21.40
2023-06-04T20:48:40.500Z,21.47
2023-06-04T20:51:06.912Z,21.51
2023-06-04T20:53:33.224Z,21.53
2023-06-04T20:55:59.686Z,21.55
2023-06-04T20:58:26.079Z,21.51
2023-06-04T21:00:53.669Z,21.21
2023-06-04T21:03:20.492Z,21.31
2023-06-04T21:05:46.976Z,21.40
2023-06-04T21:08:13.286Z,21.48
2023-06-04T21:10:39.768Z,21.51
2023-06-04T21:13:06.114Z,21.50
2023-06-04T21:15:32.457Z,21.41
2023-06-04T21:18:00.179Z,21.17
2023-06-04T21:20:26.609Z,21.26
2023-06-04T21:22:52.942Z,21.37
2023-06-04T21:25:19.237Z,21.42
2023-06-04T21:27:46.325Z,21.45
2023-06-04T21:30:13.915Z,21.47
2023-06-04T21:32:40.308Z,21.51
2023-06-04T21:35:08.183Z,21.51
2023-06-04T21:37:34.475Z,21.23
2023-06-04T21:40:00.887Z,21.24
2023-06-04T21:42:27.300Z,21.35
2023-06-04T21:44:54.212Z,21.40
2023-06-04T21:47:20.980Z,21.44
2023-06-04T21:49:47.352Z,21.46
2023-06-04T21:52:25.065Z,21.46
2023-06-04T21:54:52.250Z,21.35
2023-06-04T21:57:18.735Z,21.15
2023-06-04T21:59:45.035Z,21.26
2023-06-04T22:02:11.411Z,21.35
2023-06-04T22:04:37.757Z,21.39
2023-06-04T22:07:04.574Z,21.42
2023-06-04T22:09:32.347Z,21.43
2023-06-04T22:11:58.665Z,21.45
2023-06-04T22:14:25.041Z,21.45
2023-06-04T22:16:51.394Z,21.24
2023-06-04T22:19:17.663Z,21.21
2023-06-04T22:21:43.979Z,21.31
2023-06-04T22:24:10.454Z,21.37
2023-06-04T22:26:38.512Z,21.40
2023-06-04T22:29:05.199Z,21.43
2023-06-04T22:31:31.565Z,21.43
2023-06-04T22:33:57.912Z,21.43
2023-06-04T22:36:24.217Z,21.18
2023-06-04T22:38:50.499Z,21.22
2023-06-04T22:41:16.825Z,21.31
2023-06-04T22:43:44.432Z,21.36
2023-06-04T22:46:10.810Z,21.39
2023-06-04T22:48:37.185Z,21.40
2023-06-04T22:51:03.575Z,21.43
2023-06-04T22:53:29.889Z,21.42
2023-06-04T22:55:56.387Z,21.18
2023-06-04T22:58:22.760Z,21.19
2023-06-04T23:00:50.406Z,21.29
2023-06-04T23:03:16.958Z,21.35
2023-06-04T23:05:43.344Z,21.37
2023-06-04T23:08:09.624Z,21.38
2023-06-04T23:10:35.902Z,21.40
2023-06-04T23:13:02.171Z,21.41
2023-06-04T23:15:28.479Z,21.24
2023-06-04T23:17:56.241Z,21.18
2023-06-04T23:20:22.597Z,21.29
2023-06-04T23:22:48.896Z,21.34
2023-06-04T23:25:15.172Z,21.36
2023-06-04T23:27:41.613Z,21.37
2023-06-04T23:30:08.322Z,21.39
2023-06-04T23:32:34.640Z,21.29
2023-06-04T23:35:02.553Z,21.13
2023-06-04T23:37:28.859Z,21.24
2023-06-04T23:39:55.208Z,21.30
2023-06-04T23:42:21.538Z,21.33
2023-06-04T23:44:47.837Z,21.36
2023-06-04T23:47:14.122Z,21.39
2023-06-04T23:49:40.469Z,21.39
2023-06-04T23:52:08.129Z,21.27
2023-06-04T23:54:34.406Z,21.14
2023-06-04T23:57:00.685Z,21.23
2023-06-04T23:59:27.099Z,21.29
